sensor_id;sensor_type;location;lat;lon;timestamp;P1;durP1;ratioP1;P2;durP2;ratioP2
20870;SDS011;10595;51.218;3.452;2023-10-19T00:00:31;4.57;;;1.30;;
20870;SDS011;10595;51.218;3.452;2023-10-19T00:02:58;4.43;;;1.30;;
20870;SDS011;10595;51.218;3.452;2023-10-19T00:05:27;5.57;;;1.70;;
20870;SDS011;10595;51.218;3.452;2023-10-19T00:07:55;5.37;;;1.47;;
20870;SDS011;10595;51.218;3.452;2023-10-19T00:10:22;3.53;;;1.27;;
20870;SDS011;10595;51.218;3.452;2023-10-19T00:12:50;2.93;;;1.10;;
20870;SDS011;10595;51.218;3.452;2023-10-19T00:15:24;3.07;;;1.10;;
20870;SDS011;10595;51.218;3.452;2023-10-19T00:17:55;5.97;;;1.27;;
20870;SDS011;10595;51.218;3.452;2023-10-19T00:20:21;5.27;;;1.53;;
20870;SDS011;10595;51.218;3.452;2023-10-19T00:23:10;3.13;;;1.27;;
20870;SDS011;10595;51.218;3.452;2023-10-19T00:25:39;3.37;;;1.40;;
20870;SDS011;10595;51.218;3.452;2023-10-19T00:28:09;6.47;;;1.30;;
20870;SDS011;10595;51.218;3.452;2023-10-19T00:30:39;6.07;;;1.53;;
20870;SDS011;10595;51.218;3.452;2023-10-19T00:33:07;4.53;;;1.03;;
20870;SDS011;10595;51.218;3.452;2023-10-19T00:35:44;3.20;;;1.30;;
20870;SDS011;10595;51.218;3.452;2023-10-19T00:38:22;4.40;;;1.40;;
20870;SDS011;10595;51.218;3.452;2023-10-19T00:41:00;3.23;;;1.20;;
20870;SDS011;10595;51.218;3.452;2023-10-19T00:43:36;5.20;;;1.60;;
20870;SDS011;10595;51.218;3.452;2023-10-19T00:46:11;3.10;;;1.10;;
20870;SDS011;10595;51.218;3.452;2023-10-19T00:51:14;3.53;;;1.13;;
20870;SDS011;10595;51.218;3.452;2023-10-19T00:53:56;5.53;;;1.10;;
20870;SDS011;10595;51.218;3.452;2023-10-19T00:56:24;7.90;;;1.40;;
20870;SDS011;10595;51.218;3.452;2023-10-19T00:58:56;4.20;;;1.30;;
20870;SDS011;10595;51.218;3.452;2023-10-19T01:01:32;3.93;;;1.20;;
20870;SDS011;10595;51.218;3.452;2023-10-19T01:04:01;6.07;;;1.20;;
20870;SDS011;10595;51.218;3.452;2023-10-19T01:06:29;2.30;;;1.00;;
20870;SDS011;10595;51.218;3.452;2023-10-19T01:08:58;2.73;;;0.90;;
20870;SDS011;10595;51.218;3.452;2023-10-19T01:11:24;6.70;;;1.47;;
20870;SDS011;10595;51.218;3.452;2023-10-19T01:13:53;3.83;;;1.27;;
20870;SDS011;10595;51.218;3.452;2023-10-19T01:16:20;5.20;;;1.00;;
20870;SDS011;10595;51.218;3.452;2023-10-19T01:18:50;4.53;;;0.90;;
20870;SDS011;10595;51.218;3.452;2023-10-19T01:21:19;4.37;;;0.90;;
20870;SDS011;10595;51.218;3.452;2023-10-19T01:23:46;5.23;;;0.90;;
20870;SDS011;10595;51.218;3.452;2023-10-19T01:26:13;4.07;;;1.10;;
20870;SDS011;10595;51.218;3.452;2023-10-19T01:28:46;4.07;;;1.00;;
20870;SDS011;10595;51.218;3.452;2023-10-19T01:33:44;3.87;;;1.13;;
20870;SDS011;10595;51.218;3.452;2023-10-19T01:36:11;4.03;;;1.23;;
20870;SDS011;10595;51.218;3.452;2023-10-19T01:38:49;4.30;;;1.00;;
20870;SDS011;10595;51.218;3.452;2023-10-19T01:41:25;6.83;;;1.33;;
20870;SDS011;10595;51.218;3.452;2023-10-19T01:43:52;5.97;;;1.50;;
20870;SDS011;10595;51.218;3.452;2023-10-19T01:46:18;5.83;;;1.57;;
20870;SDS011;10595;51.218;3.452;2023-10-19T01:49:11;3.60;;;1.13;;
20870;SDS011;10595;51.218;3.452;2023-10-19T01:51:37;5.73;;;1.40;;
20870;SDS011;10595;51.218;3.452;2023-10-19T01:54:03;6.60;;;1.17;;
20870;SDS011;10595;51.218;3.452;2023-10-19T01:56:30;4.57;;;1.20;;
20870;SDS011;10595;51.218;3.452;2023-10-19T01:58:56;4.97;;;1.60;;
20870;SDS011;10595;51.218;3.452;2023-10-19T02:01:23;10.77;;;1.50;;
20870;SDS011;10595;51.218;3.452;2023-10-19T02:03:52;4.03;;;1.27;;
20870;SDS011;10595;51.218;3.452;2023-10-19T02:06:20;8.80;;;1.37;;
20870;SDS011;10595;51.218;3.452;2023-10-19T02:08:52;6.27;;;1.37;;
20870;SDS011;10595;51.218;3.452;2023-10-19T02:11:24;6.27;;;1.70;;
20870;SDS011;10595;51.218;3.452;2023-10-19T02:13:51;4.43;;;1.20;;
20870;SDS011;10595;51.218;3.452;2023-10-19T02:16:17;4.90;;;1.27;;
20870;SDS011;10595;51.218;3.452;2023-10-19T02:18:57;5.90;;;1.20;;
20870;SDS011;10595;51.218;3.452;2023-10-19T02:21:26;6.77;;;1.27;;
20870;SDS011;10595;51.218;3.452;2023-10-19T02:23:55;4.30;;;1.20;;
20870;SDS011;10595;51.218;3.452;2023-10-19T02:26:22;3.83;;;1.30;;
20870;SDS011;10595;51.218;3.452;2023-10-19T02:28:51;6.93;;;1.60;;
20870;SDS011;10595;51.218;3.452;2023-10-19T02:31:18;6.27;;;1.37;;
20870;SDS011;10595;51.218;3.452;2023-10-19T02:33:48;6.73;;;1.53;;
20870;SDS011;10595;51.218;3.452;2023-10-19T02:36:20;5.97;;;1.23;;
20870;SDS011;10595;51.218;3.452;2023-10-19T02:38:46;9.77;;;2.13;;
20870;SDS011;10595;51.218;3.452;2023-10-19T02:41:16;6.83;;;1.23;;
20870;SDS011;10595;51.218;3.452;2023-10-19T02:43:43;5.97;;;1.57;;
20870;SDS011;10595;51.218;3.452;2023-10-19T02:46:16;4.17;;;1.73;;
20870;SDS011;10595;51.218;3.452;2023-10-19T02:48:43;5.63;;;1.57;;
20870;SDS011;10595;51.218;3.452;2023-10-19T02:51:12;8.90;;;1.97;;
20870;SDS011;10595;51.218;3.452;2023-10-19T02:53:41;7.20;;;1.50;;
20870;SDS011;10595;51.218;3.452;2023-10-19T02:56:14;7.07;;;1.93;;
20870;SDS011;10595;51.218;3.452;2023-10-19T02:58:43;5.63;;;1.60;;
20870;SDS011;10595;51.218;3.452;2023-10-19T03:01:17;9.43;;;1.63;;
20870;SDS011;10595;51.218;3.452;2023-10-19T03:03:55;8.10;;;1.50;;
20870;SDS011;10595;51.218;3.452;2023-10-19T03:06:28;4.80;;;1.73;;
20870;SDS011;10595;51.218;3.452;2023-10-19T03:08:58;5.37;;;1.60;;
20870;SDS011;10595;51.218;3.452;2023-10-19T03:11:28;4.87;;;1.70;;
20870;SDS011;10595;51.218;3.452;2023-10-19T03:13:55;6.13;;;1.37;;
20870;SDS011;10595;51.218;3.452;2023-10-19T03:16:22;10.03;;;1.60;;
20870;SDS011;10595;51.218;3.452;2023-10-19T03:18:49;6.37;;;1.60;;
20870;SDS011;10595;51.218;3.452;2023-10-19T03:21:16;5.43;;;1.43;;
20870;SDS011;10595;51.218;3.452;2023-10-19T03:23:44;8.50;;;1.80;;
20870;SDS011;10595;51.218;3.452;2023-10-19T03:26:10;6.50;;;1.50;;
20870;SDS011;10595;51.218;3.452;2023-10-19T03:28:59;4.17;;;1.57;;
20870;SDS011;10595;51.218;3.452;2023-10-19T03:31:38;9.77;;;1.67;;
20870;SDS011;10595;51.218;3.452;2023-10-19T03:34:08;4.43;;;1.30;;
20870;SDS011;10595;51.218;3.452;2023-10-19T03:36:35;5.90;;;1.30;;
20870;SDS011;10595;51.218;3.452;2023-10-19T03:39:01;6.60;;;1.90;;
20870;SDS011;10595;51.218;3.452;2023-10-19T03:41:40;7.53;;;1.67;;
20870;SDS011;10595;51.218;3.452;2023-10-19T03:44:10;8.90;;;2.00;;
20870;SDS011;10595;51.218;3.452;2023-10-19T03:46:52;4.10;;;1.43;;
20870;SDS011;10595;51.218;3.452;2023-10-19T03:49:21;8.87;;;2.00;;
20870;SDS011;10595;51.218;3.452;2023-10-19T03:51:48;9.43;;;1.90;;
20870;SDS011;10595;51.218;3.452;2023-10-19T03:54:24;4.53;;;1.63;;
20870;SDS011;10595;51.218;3.452;2023-10-19T03:56:50;8.33;;;1.60;;
20870;SDS011;10595;51.218;3.452;2023-10-19T03:59:17;7.30;;;1.70;;
20870;SDS011;10595;51.218;3.452;2023-10-19T04:01:43;13.57;;;1.80;;
20870;SDS011;10595;51.218;3.452;2023-10-19T04:04:10;6.63;;;1.40;;
20870;SDS011;10595;51.218;3.452;2023-10-19T04:06:36;7.60;;;1.60;;
20870;SDS011;10595;51.218;3.452;2023-10-19T04:09:02;5.73;;;1.73;;
20870;SDS011;10595;51.218;3.452;2023-10-19T04:11:34;5.57;;;2.10;;
20870;SDS011;10595;51.218;3.452;2023-10-19T04:14:16;6.37;;;1.27;;
20870;SDS011;10595;51.218;3.452;2023-10-19T04:16:43;9.43;;;2.63;;
20870;SDS011;10595;51.218;3.452;2023-10-19T04:19:13;6.13;;;1.70;;
20870;SDS011;10595;51.218;3.452;2023-10-19T04:21:39;6.47;;;1.97;;
20870;SDS011;10595;51.218;3.452;2023-10-19T04:24:09;5.87;;;1.70;;
20870;SDS011;10595;51.218;3.452;2023-10-19T04:26:36;7.90;;;1.63;;
20870;SDS011;10595;51.218;3.452;2023-10-19T04:29:02;8.80;;;2.03;;
20870;SDS011;10595;51.218;3.452;2023-10-19T04:31:42;5.77;;;1.70;;
20870;SDS011;10595;51.218;3.452;2023-10-19T04:34:21;5.63;;;1.70;;
20870;SDS011;10595;51.218;3.452;2023-10-19T04:36:50;8.53;;;1.57;;
20870;SDS011;10595;51.218;3.452;2023-10-19T04:39:17;7.67;;;2.37;;
20870;SDS011;10595;51.218;3.452;2023-10-19T04:41:46;9.27;;;2.30;;
20870;SDS011;10595;51.218;3.452;2023-10-19T04:44:15;10.70;;;2.40;;
20870;SDS011;10595;51.218;3.452;2023-10-19T04:46:41;9.57;;;3.10;;
20870;SDS011;10595;51.218;3.452;2023-10-19T04:49:07;12.63;;;4.73;;
20870;SDS011;10595;51.218;3.452;2023-10-19T04:51:34;13.27;;;4.80;;
20870;SDS011;10595;51.218;3.452;2023-10-19T04:54:04;10.97;;;2.77;;
20870;SDS011;10595;51.218;3.452;2023-10-19T04:56:30;9.83;;;2.30;;
20870;SDS011;10595;51.218;3.452;2023-10-19T04:58:57;7.37;;;2.07;;
20870;SDS011;10595;51.218;3.452;2023-10-19T05:01:23;7.57;;;1.77;;
20870;SDS011;10595;51.218;3.452;2023-10-19T05:03:49;10.43;;;2.13;;
20870;SDS011;10595;51.218;3.452;2023-10-19T05:06:15;9.37;;;2.30;;
20870;SDS011;10595;51.218;3.452;2023-10-19T05:08:41;10.97;;;2.07;;
20870;SDS011;10595;51.218;3.452;2023-10-19T05:11:07;10.90;;;2.20;;
20870;SDS011;10595;51.218;3.452;2023-10-19T05:13:34;7.77;;;2.40;;
20870;SDS011;10595;51.218;3.452;2023-10-19T05:16:01;9.23;;;2.20;;
20870;SDS011;10595;51.218;3.452;2023-10-19T05:18:27;10.13;;;2.07;;
20870;SDS011;10595;51.218;3.452;2023-10-19T05:20:53;9.70;;;2.00;;
20870;SDS011;10595;51.218;3.452;2023-10-19T05:23:23;11.47;;;2.23;;
20870;SDS011;10595;51.218;3.452;2023-10-19T05:25:49;7.73;;;2.00;;
20870;SDS011;10595;51.218;3.452;2023-10-19T05:28:17;9.70;;;2.63;;
20870;SDS011;10595;51.218;3.452;2023-10-19T05:30:44;12.33;;;2.63;;
20870;SDS011;10595;51.218;3.452;2023-10-19T05:33:10;7.97;;;2.10;;
20870;SDS011;10595;51.218;3.452;2023-10-19T05:35:36;11.33;;;2.73;;
20870;SDS011;10595;51.218;3.452;2023-10-19T05:38:06;12.70;;;2.60;;
20870;SDS011;10595;51.218;3.452;2023-10-19T05:40:32;13.17;;;2.23;;
20870;SDS011;10595;51.218;3.452;2023-10-19T05:42:59;10.37;;;2.50;;
20870;SDS011;10595;51.218;3.452;2023-10-19T05:45:26;12.20;;;2.40;;
20870;SDS011;10595;51.218;3.452;2023-10-19T05:47:53;16.30;;;3.03;;
20870;SDS011;10595;51.218;3.452;2023-10-19T05:50:19;11.17;;;3.10;;
20870;SDS011;10595;51.218;3.452;2023-10-19T05:52:45;9.50;;;2.47;;
20870;SDS011;10595;51.218;3.452;2023-10-19T05:55:12;14.97;;;2.93;;
20870;SDS011;10595;51.218;3.452;2023-10-19T05:57:38;12.13;;;2.50;;
20870;SDS011;10595;51.218;3.452;2023-10-19T06:00:08;14.77;;;2.63;;
20870;SDS011;10595;51.218;3.452;2023-10-19T06:02:45;10.97;;;2.40;;
20870;SDS011;10595;51.218;3.452;2023-10-19T06:05:12;11.40;;;2.67;;
20870;SDS011;10595;51.218;3.452;2023-10-19T06:07:40;14.70;;;2.50;;
20870;SDS011;10595;51.218;3.452;2023-10-19T06:10:06;13.13;;;2.33;;
20870;SDS011;10595;51.218;3.452;2023-10-19T06:12:33;11.37;;;2.20;;
20870;SDS011;10595;51.218;3.452;2023-10-19T06:14:59;10.97;;;2.63;;
20870;SDS011;10595;51.218;3.452;2023-10-19T06:17:26;11.60;;;2.63;;
20870;SDS011;10595;51.218;3.452;2023-10-19T06:19:53;16.63;;;2.70;;
20870;SDS011;10595;51.218;3.452;2023-10-19T06:22:19;13.37;;;3.30;;
20870;SDS011;10595;51.218;3.452;2023-10-19T06:24:45;11.70;;;2.60;;
20870;SDS011;10595;51.218;3.452;2023-10-19T06:27:12;15.20;;;2.83;;
20870;SDS011;10595;51.218;3.452;2023-10-19T06:29:38;15.17;;;2.40;;
20870;SDS011;10595;51.218;3.452;2023-10-19T06:32:04;13.70;;;3.00;;
20870;SDS011;10595;51.218;3.452;2023-10-19T06:34:30;14.37;;;2.63;;
20870;SDS011;10595;51.218;3.452;2023-10-19T06:36:57;14.23;;;3.40;;
20870;SDS011;10595;51.218;3.452;2023-10-19T06:39:24;13.90;;;2.73;;
20870;SDS011;10595;51.218;3.452;2023-10-19T06:41:50;13.97;;;2.60;;
20870;SDS011;10595;51.218;3.452;2023-10-19T06:44:16;14.53;;;2.87;;
20870;SDS011;10595;51.218;3.452;2023-10-19T06:46:42;14.33;;;3.13;;
20870;SDS011;10595;51.218;3.452;2023-10-19T06:49:11;16.77;;;2.90;;
20870;SDS011;10595;51.218;3.452;2023-10-19T06:51:37;14.23;;;3.50;;
20870;SDS011;10595;51.218;3.452;2023-10-19T06:54:03;10.10;;;2.77;;
20870;SDS011;10595;51.218;3.452;2023-10-19T06:56:29;11.43;;;2.77;;
20870;SDS011;10595;51.218;3.452;2023-10-19T06:58:57;13.23;;;3.03;;
20870;SDS011;10595;51.218;3.452;2023-10-19T07:01:24;13.10;;;2.60;;
20870;SDS011;10595;51.218;3.452;2023-10-19T07:03:54;15.90;;;2.97;;
20870;SDS011;10595;51.218;3.452;2023-10-19T07:06:21;14.27;;;3.30;;
20870;SDS011;10595;51.218;3.452;2023-10-19T07:08:47;17.23;;;3.40;;
20870;SDS011;10595;51.218;3.452;2023-10-19T07:11:13;13.40;;;2.57;;
20870;SDS011;10595;51.218;3.452;2023-10-19T07:13:39;13.80;;;2.90;;
20870;SDS011;10595;51.218;3.452;2023-10-19T07:16:06;15.80;;;4.00;;
20870;SDS011;10595;51.218;3.452;2023-10-19T07:18:34;15.23;;;3.57;;
20870;SDS011;10595;51.218;3.452;2023-10-19T07:21:01;10.40;;;2.70;;
20870;SDS011;10595;51.218;3.452;2023-10-19T07:23:28;12.93;;;3.00;;
20870;SDS011;10595;51.218;3.452;2023-10-19T07:25:54;19.87;;;4.00;;
20870;SDS011;10595;51.218;3.452;2023-10-19T07:28:21;20.10;;;3.83;;
20870;SDS011;10595;51.218;3.452;2023-10-19T07:30:47;15.40;;;3.87;;
20870;SDS011;10595;51.218;3.452;2023-10-19T07:33:16;9.77;;;3.50;;
20870;SDS011;10595;51.218;3.452;2023-10-19T07:35:42;11.83;;;2.93;;
20870;SDS011;10595;51.218;3.452;2023-10-19T07:38:09;16.40;;;4.03;;
20870;SDS011;10595;51.218;3.452;2023-10-19T07:40:35;13.17;;;3.50;;
20870;SDS011;10595;51.218;3.452;2023-10-19T07:43:01;17.37;;;3.67;;
20870;SDS011;10595;51.218;3.452;2023-10-19T07:45:31;16.57;;;3.83;;
20870;SDS011;10595;51.218;3.452;2023-10-19T07:47:59;16.70;;;3.70;;
20870;SDS011;10595;51.218;3.452;2023-10-19T07:50:31;24.30;;;4.23;;
20870;SDS011;10595;51.218;3.452;2023-10-19T07:52:58;17.80;;;3.63;;
20870;SDS011;10595;51.218;3.452;2023-10-19T07:55:24;20.10;;;3.60;;
20870;SDS011;10595;51.218;3.452;2023-10-19T07:57:50;17.63;;;3.77;;
20870;SDS011;10595;51.218;3.452;2023-10-19T08:00:16;16.27;;;3.83;;
20870;SDS011;10595;51.218;3.452;2023-10-19T08:02:42;13.30;;;3.40;;
20870;SDS011;10595;51.218;3.452;2023-10-19T08:05:15;22.90;;;4.13;;
20870;SDS011;10595;51.218;3.452;2023-10-19T08:07:45;19.33;;;4.13;;
20870;SDS011;10595;51.218;3.452;2023-10-19T08:10:12;16.37;;;3.53;;
20870;SDS011;10595;51.218;3.452;2023-10-19T08:12:39;15.47;;;3.73;;
20870;SDS011;10595;51.218;3.452;2023-10-19T08:15:12;14.30;;;3.57;;
20870;SDS011;10595;51.218;3.452;2023-10-19T08:17:39;10.83;;;3.20;;
20870;SDS011;10595;51.218;3.452;2023-10-19T08:20:05;15.17;;;3.60;;
20870;SDS011;10595;51.218;3.452;2023-10-19T08:22:34;13.77;;;3.70;;
20870;SDS011;10595;51.218;3.452;2023-10-19T08:25:02;14.20;;;3.50;;
20870;SDS011;10595;51.218;3.452;2023-10-19T08:27:29;14.53;;;3.77;;
20870;SDS011;10595;51.218;3.452;2023-10-19T08:29:56;18.27;;;3.23;;
20870;SDS011;10595;51.218;3.452;2023-10-19T08:32:22;17.27;;;3.50;;
20870;SDS011;10595;51.218;3.452;2023-10-19T08:34:48;16.27;;;3.80;;
20870;SDS011;10595;51.218;3.452;2023-10-19T08:37:14;17.33;;;3.47;;
20870;SDS011;10595;51.218;3.452;2023-10-19T08:39:40;15.40;;;3.40;;
20870;SDS011;10595;51.218;3.452;2023-10-19T08:42:08;16.97;;;3.40;;
20870;SDS011;10595;51.218;3.452;2023-10-19T08:44:35;18.33;;;3.70;;
20870;SDS011;10595;51.218;3.452;2023-10-19T08:47:01;43.40;;;5.45;;
20870;SDS011;10595;51.218;3.452;2023-10-19T08:49:30;35.47;;;5.00;;
20870;SDS011;10595;51.218;3.452;2023-10-19T08:51:56;12.80;;;2.90;;
20870;SDS011;10595;51.218;3.452;2023-10-19T08:54:24;14.67;;;2.93;;
20870;SDS011;10595;51.218;3.452;2023-10-19T08:56:51;19.73;;;3.80;;
20870;SDS011;10595;51.218;3.452;2023-10-19T08:59:17;13.90;;;3.10;;
20870;SDS011;10595;51.218;3.452;2023-10-19T09:01:43;13.30;;;2.33;;
20870;SDS011;10595;51.218;3.452;2023-10-19T09:04:10;12.80;;;2.67;;
20870;SDS011;10595;51.218;3.452;2023-10-19T09:06:39;13.53;;;3.03;;
20870;SDS011;10595;51.218;3.452;2023-10-19T09:09:10;14.07;;;3.20;;
20870;SDS011;10595;51.218;3.452;2023-10-19T09:11:42;12.67;;;2.77;;
20870;SDS011;10595;51.218;3.452;2023-10-19T09:14:08;14.23;;;3.33;;
20870;SDS011;10595;51.218;3.452;2023-10-19T09:16:37;14.80;;;3.13;;
20870;SDS011;10595;51.218;3.452;2023-10-19T09:19:03;12.20;;;3.13;;
20870;SDS011;10595;51.218;3.452;2023-10-19T09:21:30;17.63;;;3.27;;
20870;SDS011;10595;51.218;3.452;2023-10-19T09:23:58;16.03;;;3.10;;
20870;SDS011;10595;51.218;3.452;2023-10-19T09:26:24;17.90;;;4.17;;
20870;SDS011;10595;51.218;3.452;2023-10-19T09:28:50;17.07;;;3.37;;
20870;SDS011;10595;51.218;3.452;2023-10-19T09:31:17;26.87;;;3.83;;
20870;SDS011;10595;51.218;3.452;2023-10-19T09:33:44;14.60;;;2.73;;
20870;SDS011;10595;51.218;3.452;2023-10-19T09:36:11;13.07;;;2.90;;
20870;SDS011;10595;51.218;3.452;2023-10-19T09:38:38;20.10;;;3.23;;
20870;SDS011;10595;51.218;3.452;2023-10-19T09:41:06;11.07;;;2.50;;
20870;SDS011;10595;51.218;3.452;2023-10-19T09:43:34;13.27;;;2.60;;
20870;SDS011;10595;51.218;3.452;2023-10-19T09:46:01;12.67;;;3.07;;
20870;SDS011;10595;51.218;3.452;2023-10-19T09:48:29;18.37;;;2.97;;
20870;SDS011;10595;51.218;3.452;2023-10-19T09:51:00;12.30;;;2.83;;
20870;SDS011;10595;51.218;3.452;2023-10-19T09:53:28;17.77;;;3.43;;
20870;SDS011;10595;51.218;3.452;2023-10-19T09:55:58;14.33;;;3.40;;
20870;SDS011;10595;51.218;3.452;2023-10-19T09:58:26;15.30;;;2.93;;
20870;SDS011;10595;51.218;3.452;2023-10-19T10:00:54;14.50;;;2.97;;
20870;SDS011;10595;51.218;3.452;2023-10-19T10:06:07;15.77;;;3.73;;
20870;SDS011;10595;51.218;3.452;2023-10-19T10:08:34;14.40;;;2.77;;
20870;SDS011;10595;51.218;3.452;2023-10-19T10:11:12;12.67;;;3.20;;
20870;SDS011;10595;51.218;3.452;2023-10-19T10:13:40;14.17;;;3.23;;
20870;SDS011;10595;51.218;3.452;2023-10-19T10:16:06;17.97;;;3.07;;
20870;SDS011;10595;51.218;3.452;2023-10-19T10:18:33;15.97;;;2.93;;
20870;SDS011;10595;51.218;3.452;2023-10-19T10:23:39;16.67;;;2.87;;
20870;SDS011;10595;51.218;3.452;2023-10-19T10:26:06;17.50;;;2.80;;
20870;SDS011;10595;51.218;3.452;2023-10-19T10:28:33;11.70;;;2.70;;
20870;SDS011;10595;51.218;3.452;2023-10-19T10:31:22;12.43;;;2.87;;
20870;SDS011;10595;51.218;3.452;2023-10-19T10:33:52;16.87;;;3.53;;
20870;SDS011;10595;51.218;3.452;2023-10-19T10:36:19;17.83;;;2.93;;
20870;SDS011;10595;51.218;3.452;2023-10-19T10:38:46;17.90;;;3.50;;
20870;SDS011;10595;51.218;3.452;2023-10-19T10:41:18;15.90;;;3.23;;
20870;SDS011;10595;51.218;3.452;2023-10-19T10:43:48;21.43;;;3.60;;
20870;SDS011;10595;51.218;3.452;2023-10-19T10:46:16;16.03;;;2.97;;
20870;SDS011;10595;51.218;3.452;2023-10-19T10:48:42;16.00;;;3.00;;
20870;SDS011;10595;51.218;3.452;2023-10-19T10:51:15;13.70;;;3.00;;
20870;SDS011;10595;51.218;3.452;2023-10-19T10:53:41;13.70;;;3.10;;
20870;SDS011;10595;51.218;3.452;2023-10-19T10:56:07;16.27;;;3.63;;
20870;SDS011;10595;51.218;3.452;2023-10-19T10:58:33;14.00;;;3.17;;
20870;SDS011;10595;51.218;3.452;2023-10-19T11:00:59;14.93;;;3.13;;
20870;SDS011;10595;51.218;3.452;2023-10-19T11:03:25;15.30;;;3.13;;
20870;SDS011;10595;51.218;3.452;2023-10-19T11:05:55;13.37;;;2.80;;
20870;SDS011;10595;51.218;3.452;2023-10-19T11:08:23;12.67;;;2.90;;
20870;SDS011;10595;51.218;3.452;2023-10-19T11:10:49;11.50;;;2.43;;
20870;SDS011;10595;51.218;3.452;2023-10-19T11:13:22;12.20;;;2.47;;
20870;SDS011;10595;51.218;3.452;2023-10-19T11:15:49;11.50;;;2.70;;
20870;SDS011;10595;51.218;3.452;2023-10-19T11:21:02;14.87;;;3.10;;
20870;SDS011;10595;51.218;3.452;2023-10-19T11:23:42;11.47;;;3.33;;
20870;SDS011;10595;51.218;3.452;2023-10-19T11:26:12;19.07;;;3.67;;
20870;SDS011;10595;51.218;3.452;2023-10-19T11:28:38;13.07;;;3.07;;
20870;SDS011;10595;51.218;3.452;2023-10-19T11:31:15;13.70;;;3.27;;
20870;SDS011;10595;51.218;3.452;2023-10-19T11:33:42;10.97;;;2.63;;
20870;SDS011;10595;51.218;3.452;2023-10-19T11:36:09;13.30;;;3.37;;
20870;SDS011;10595;51.218;3.452;2023-10-19T11:38:37;17.33;;;3.10;;
20870;SDS011;10595;51.218;3.452;2023-10-19T11:41:03;9.03;;;2.63;;
20870;SDS011;10595;51.218;3.452;2023-10-19T11:43:29;15.47;;;3.17;;
20870;SDS011;10595;51.218;3.452;2023-10-19T11:45:56;14.50;;;2.90;;
20870;SDS011;10595;51.218;3.452;2023-10-19T11:48:22;11.67;;;2.50;;
20870;SDS011;10595;51.218;3.452;2023-10-19T11:50:48;11.60;;;2.57;;
20870;SDS011;10595;51.218;3.452;2023-10-19T11:53:14;11.50;;;2.70;;
20870;SDS011;10595;51.218;3.452;2023-10-19T11:55:40;53.07;;;4.90;;
20870;SDS011;10595;51.218;3.452;2023-10-19T11:58:07;11.93;;;2.93;;
20870;SDS011;10595;51.218;3.452;2023-10-19T12:00:36;13.30;;;3.00;;
20870;SDS011;10595;51.218;3.452;2023-10-19T12:03:08;13.30;;;2.60;;
20870;SDS011;10595;51.218;3.452;2023-10-19T12:05:35;11.10;;;2.73;;
20870;SDS011;10595;51.218;3.452;2023-10-19T12:08:02;16.50;;;3.20;;
20870;SDS011;10595;51.218;3.452;2023-10-19T12:10:28;10.50;;;3.00;;
20870;SDS011;10595;51.218;3.452;2023-10-19T12:13:01;15.07;;;3.50;;
20870;SDS011;10595;51.218;3.452;2023-10-19T12:15:27;14.53;;;2.90;;
20870;SDS011;10595;51.218;3.452;2023-10-19T12:17:53;15.87;;;2.87;;
20870;SDS011;10595;51.218;3.452;2023-10-19T12:20:19;12.43;;;2.63;;
20870;SDS011;10595;51.218;3.452;2023-10-19T12:22:47;11.67;;;3.20;;
20870;SDS011;10595;51.218;3.452;2023-10-19T12:25:13;14.33;;;3.07;;
20870;SDS011;10595;51.218;3.452;2023-10-19T12:27:40;14.67;;;3.13;;
20870;SDS011;10595;51.218;3.452;2023-10-19T12:30:06;12.47;;;2.87;;
20870;SDS011;10595;51.218;3.452;2023-10-19T12:32:44;11.17;;;2.90;;
20870;SDS011;10595;51.218;3.452;2023-10-19T12:35:11;9.20;;;2.27;;
20870;SDS011;10595;51.218;3.452;2023-10-19T12:37:38;10.40;;;2.73;;
20870;SDS011;10595;51.218;3.452;2023-10-19T12:40:11;10.13;;;2.43;;
20870;SDS011;10595;51.218;3.452;2023-10-19T12:42:51;9.03;;;2.73;;
20870;SDS011;10595;51.218;3.452;2023-10-19T12:45:19;10.00;;;2.50;;
20870;SDS011;10595;51.218;3.452;2023-10-19T12:47:45;9.03;;;2.57;;
20870;SDS011;10595;51.218;3.452;2023-10-19T12:50:11;8.47;;;2.63;;
20870;SDS011;10595;51.218;3.452;2023-10-19T12:52:38;8.90;;;2.83;;
20870;SDS011;10595;51.218;3.452;2023-10-19T12:55:05;8.47;;;2.00;;
20870;SDS011;10595;51.218;3.452;2023-10-19T12:57:32;9.17;;;2.47;;
20870;SDS011;10595;51.218;3.452;2023-10-19T12:59:58;8.00;;;2.40;;
20870;SDS011;10595;51.218;3.452;2023-10-19T13:02:47;6.57;;;2.20;;
20870;SDS011;10595;51.218;3.452;2023-10-19T13:05:13;6.47;;;1.90;;
20870;SDS011;10595;51.218;3.452;2023-10-19T13:07:43;11.63;;;2.63;;
20870;SDS011;10595;51.218;3.452;2023-10-19T13:10:09;6.27;;;2.40;;
20870;SDS011;10595;51.218;3.452;2023-10-19T13:12:36;7.57;;;2.27;;
20870;SDS011;10595;51.218;3.452;2023-10-19T13:15:03;9.30;;;2.27;;
20870;SDS011;10595;51.218;3.452;2023-10-19T13:17:32;7.97;;;2.10;;
20870;SDS011;10595;51.218;3.452;2023-10-19T13:20:00;9.53;;;2.37;;
20870;SDS011;10595;51.218;3.452;2023-10-19T13:22:31;6.17;;;1.87;;
20870;SDS011;10595;51.218;3.452;2023-10-19T13:24:58;7.03;;;2.10;;
20870;SDS011;10595;51.218;3.452;2023-10-19T13:27:24;4.67;;;1.83;;
20870;SDS011;10595;51.218;3.452;2023-10-19T13:29:52;16.20;;;2.80;;
20870;SDS011;10595;51.218;3.452;2023-10-19T13:32:18;8.60;;;2.40;;
20870;SDS011;10595;51.218;3.452;2023-10-19T13:34:44;6.87;;;2.00;;
20870;SDS011;10595;51.218;3.452;2023-10-19T13:37:10;6.23;;;1.80;;
20870;SDS011;10595;51.218;3.452;2023-10-19T13:39:36;8.23;;;2.23;;
20870;SDS011;10595;51.218;3.452;2023-10-19T13:42:04;7.80;;;1.90;;
20870;SDS011;10595;51.218;3.452;2023-10-19T13:44:31;4.33;;;1.93;;
20870;SDS011;10595;51.218;3.452;2023-10-19T13:46:57;5.00;;;2.03;;
20870;SDS011;10595;51.218;3.452;2023-10-19T13:49:24;5.23;;;1.70;;
20870;SDS011;10595;51.218;3.452;2023-10-19T13:51:50;3.83;;;2.03;;
20870;SDS011;10595;51.218;3.452;2023-10-19T13:54:17;7.83;;;2.10;;
20870;SDS011;10595;51.218;3.452;2023-10-19T13:56:43;6.33;;;2.20;;
20870;SDS011;10595;51.218;3.452;2023-10-19T13:59:10;7.03;;;2.00;;
20870;SDS011;10595;51.218;3.452;2023-10-19T14:01:37;6.17;;;2.07;;
20870;SDS011;10595;51.218;3.452;2023-10-19T14:04:03;5.33;;;2.10;;
20870;SDS011;10595;51.218;3.452;2023-10-19T14:06:29;8.10;;;2.40;;
20870;SDS011;10595;51.218;3.452;2023-10-19T14:08:56;6.70;;;2.00;;
20870;SDS011;10595;51.218;3.452;2023-10-19T14:11:22;7.23;;;2.37;;
20870;SDS011;10595;51.218;3.452;2023-10-19T14:13:48;6.40;;;2.13;;
20870;SDS011;10595;51.218;3.452;2023-10-19T14:16:17;9.53;;;2.23;;
20870;SDS011;10595;51.218;3.452;2023-10-19T14:18:43;5.67;;;2.50;;
20870;SDS011;10595;51.218;3.452;2023-10-19T14:21:15;5.83;;;2.43;;
20870;SDS011;10595;51.218;3.452;2023-10-19T14:23:42;3.67;;;2.03;;
20870;SDS011;10595;51.218;3.452;2023-10-19T14:26:09;6.20;;;2.40;;
20870;SDS011;10595;51.218;3.452;2023-10-19T14:28:36;6.40;;;2.27;;
20870;SDS011;10595;51.218;3.452;2023-10-19T14:31:03;6.40;;;2.50;;
20870;SDS011;10595;51.218;3.452;2023-10-19T14:33:29;8.17;;;2.63;;
20870;SDS011;10595;51.218;3.452;2023-10-19T14:35:55;4.93;;;2.60;;
20870;SDS011;10595;51.218;3.452;2023-10-19T14:38:21;4.93;;;2.40;;
20870;SDS011;10595;51.218;3.452;2023-10-19T14:40:50;7.10;;;2.50;;
20870;SDS011;10595;51.218;3.452;2023-10-19T14:43:17;6.40;;;2.20;;
20870;SDS011;10595;51.218;3.452;2023-10-19T14:45:43;6.33;;;1.97;;
20870;SDS011;10595;51.218;3.452;2023-10-19T14:48:09;6.47;;;2.27;;
20870;SDS011;10595;51.218;3.452;2023-10-19T14:50:36;6.67;;;2.63;;
20870;SDS011;10595;51.218;3.452;2023-10-19T14:53:02;3.00;;;2.17;;
20870;SDS011;10595;51.218;3.452;2023-10-19T14:55:29;7.20;;;2.50;;
20870;SDS011;10595;51.218;3.452;2023-10-19T14:57:55;7.60;;;2.90;;
20870;SDS011;10595;51.218;3.452;2023-10-19T15:00:22;6.13;;;2.57;;